Time;durP1;ratioP1;P1;durP2;ratioP2;P2;SDS_P1;SDS_P2;PMS_P1;PMS_P2;Temp;Humidity;BMP_temperature;BMP_pressure;BME280_temperature;BME280_humidity;BME280_pressure;Samples;Min_cycle;Max_cycle;Signal;HPM_P1;HPM_P2
2023/01/11 00:01:34;;;;;;;6.93;4.60;;;;;;;5.89;61.80;99941.28;7710705;32;38710;-87
2023/01/11 00:05:54;;;;;;;7.45;4.43;;;;;;;5.70;62.50;99934.38;7696227;32;36971;-87
2023/01/11 00:10:10;;;;;;;6.43;3.92;;;;;;;5.78;62.30;99931.31;7710202;32;39417;-87
2023/01/11 00:14:26;;;;;;;6.55;4.25;;;;;;;5.85;61.84;99932.00;7710480;32;39755;-87
2023/01/11 00:18:43;;;;;;;8.07;4.37;;;;;;;5.90;61.68;99925.84;7709438;32;38007;-87
2023/01/11 00:22:59;;;;;;;6.82;4.25;;;;;;;5.73;61.87;99928.50;7709708;32;36971;-87
2023/01/11 00:27:16;;;;;;;7.93;4.12;;;;;;;5.83;61.50;99937.66;7709744;32;39415;-87
2023/01/11 00:31:32;;;;;;;7.07;3.97;;;;;;;5.78;61.86;99939.41;7710028;32;39991;-85
2023/01/11 00:35:51;;;;;;;7.45;4.50;;;;;;;5.40;63.20;99946.13;7709105;32;37534;-87
2023/01/11 00:40:08;;;;;;;7.18;4.22;;;;;;;5.28;63.23;99946.09;7696149;32;37077;-87
2023/01/11 00:48:58;;;;;;;5.20;3.97;;;;;;;4.88;64.28;99954.81;7709123;32;40475;-87
2023/01/11 00:53:17;;;;;;;7.37;4.43;;;;;;;4.55;66.14;99963.37;7709558;32;38041;-87
2023/01/11 00:57:33;;;;;;;8.93;4.35;;;;;;;4.86;65.12;99971.28;7709222;32;35990;-86
2023/01/11 01:01:49;;;;;;;8.73;4.47;;;;;;;4.93;64.93;99973.84;7709313;32;39274;-86
2023/01/11 01:06:05;;;;;;;6.45;3.85;;;;;;;5.05;63.98;99963.94;7952521;27;40745;-82
2023/01/11 01:10:22;;;;;;;8.18;4.50;;;;;;;4.93;64.51;99967.62;7736641;32;37916;-79
2023/01/11 01:14:38;;;;;;;6.55;4.07;;;;;;;5.04;64.20;99964.16;7739030;32;37273;-79
2023/01/11 01:18:56;;;;;;;8.95;4.37;;;;;;;4.45;66.16;99964.75;7736289;32;39131;-78
2023/01/11 01:23:12;;;;;;;8.55;4.30;;;;;;;4.67;65.50;99966.94;7735897;32;39827;-79
2023/01/11 01:27:28;;;;;;;6.25;4.05;;;;;;;4.53;65.94;99977.09;7735827;32;37547;-79
2023/01/11 01:31:44;;;;;;;5.78;3.83;;;;;;;4.64;65.74;99979.03;7735712;32;36967;-79
2023/01/11 01:36:01;;;;;;;5.85;3.87;;;;;;;5.06;63.84;99976.38;7739101;32;40040;-79
2023/01/11 01:40:17;;;;;;;6.30;3.92;;;;;;;4.63;65.44;99976.56;7738965;32;40135;-81
2023/01/11 01:44:52;;;;;;;5.43;4.03;;;;;;;5.01;64.02;99975.41;7739091;32;38683;-78
2023/01/11 01:49:14;;;;;;;7.28;4.28;;;;;;;4.77;64.83;99971.81;7739442;32;37000;-79
2023/01/11 01:53:36;;;;;;;5.25;3.85;;;;;;;4.84;64.49;99970.66;7739724;32;39148;-80
2023/01/11 01:57:54;;;;;;;9.53;4.70;;;;;;;4.71;65.00;99973.56;7739325;32;40142;-80
2023/01/11 02:02:11;;;;;;;5.45;3.90;;;;;;;4.05;67.17;99980.56;7725675;32;37870;-81
2023/01/11 02:06:28;;;;;;;5.82;4.05;;;;;;;4.89;64.31;99976.19;7738907;32;37203;-80
2023/01/11 02:10:44;;;;;;;7.03;4.62;;;;;;;4.75;64.84;99984.72;7739217;32;39597;-80
2023/01/11 02:15:01;;;;;;;6.53;4.07;;;;;;;4.91;64.08;99991.34;7738979;32;39691;-80
2023/01/11 02:19:52;;;;;;;6.05;4.20;;;;;;;5.03;63.40;99992.22;7739056;32;38611;-79
2023/01/11 02:24:26;;;;;;;10.25;3.90;;;;;;;4.52;65.02;100007.88;7739019;32;37247;-80
2023/01/11 02:29:12;;;;;;;;;;;;;;;4.83;63.85;99996.03;7725210;32;39201;-80
2023/01/11 02:33:49;;;;;;;5.55;4.10;;;;;;;4.47;65.33;100016.63;7710429;32;40149;-80
2023/01/11 02:38:40;;;;;;;5.40;3.95;;;;;;;4.07;66.87;100009.00;7738918;32;37879;-81
2023/01/11 02:48:40;;;;;;;5.20;3.70;;;;;;;4.67;64.81;100011.00;7728196;32;39392;-80
2023/01/11 02:53:15;;;;;;;4.93;3.70;;;;;;;4.28;65.45;100010.44;7736507;32;40006;-81
2023/01/11 02:57:32;;;;;;;7.43;4.12;;;;;;;4.59;65.40;100011.31;7738335;32;38860;-80
2023/01/11 03:01:54;;;;;;;10.07;4.03;;;;;;;4.36;65.81;100016.56;7724441;32;36794;-80
2023/01/11 03:06:16;;;;;;;10.55;4.70;;;;;;;4.87;64.22;100012.59;7738467;32;39849;-80
2023/01/11 03:10:56;;;;;;;8.65;4.55;;;;;;;4.51;65.20;100017.81;7738425;32;39984;-80
2023/01/11 03:15:25;;;;;;;6.35;4.25;;;;;;;4.34;65.35;100006.00;7738618;32;37393;-80
2023/01/11 03:19:50;;;;;;;10.77;4.28;;;;;;;4.66;64.68;100008.53;7725068;32;37898;-80
2023/01/11 03:24:24;;;;;;;9.82;4.75;;;;;;;4.78;64.04;100004.00;7738458;32;39379;-80
2023/01/11 03:28:56;;;;;;;7.80;4.12;;;;;;;4.67;64.31;100011.00;7738204;32;39593;-78
2023/01/11 03:33:32;;;;;;;7.57;4.50;;;;;;;4.71;63.54;100005.97;7738596;32;35615;-80
2023/01/11 03:38:05;;;;;;;10.02;4.95;;;;;;;3.98;65.97;100010.31;7738166;32;37279;-79
2023/01/11 03:42:22;;;;;;;6.62;4.40;;;;;;;4.04;65.15;100014.00;7738167;32;40056;-81
2023/01/11 03:46:47;;;;;;;9.40;4.50;;;;;;;4.40;64.06;99999.69;7737489;32;40506;-81
2023/01/11 03:51:07;;;;;;;6.82;4.35;;;;;;;4.43;64.23;100006.50;7738439;32;38720;-80
2023/01/11 03:55:25;;;;;;;7.60;4.22;;;;;;;4.44;63.97;100006.28;7737554;32;37159;-80
2023/01/11 03:59:41;;;;;;;7.05;4.25;;;;;;;4.61;63.36;100013.78;7724245;32;38274;-79
2023/01/11 04:03:58;;;;;;;5.85;3.92;;;;;;;4.50;63.83;100004.53;7723933;32;40151;-80
2023/01/11 04:08:14;;;;;;;7.12;4.22;;;;;;;4.37;64.50;100027.13;7737252;32;39347;-81
2023/01/11 04:12:33;;;;;;;8.63;4.62;;;;;;;4.86;62.91;100029.84;7737729;32;37562;-79
2023/01/11 04:16:49;;;;;;;5.82;3.80;;;;;;;4.27;64.34;100027.66;7740344;32;39700;-80
2023/01/11 04:21:05;;;;;;;9.63;4.20;;;;;;;4.60;63.05;100020.22;7737379;32;40293;-81
2023/01/11 04:25:21;;;;;;;5.85;3.83;;;;;;;4.80;62.42;100018.09;7737376;32;38562;-78
2023/01/11 04:29:37;;;;;;;7.28;4.62;;;;;;;4.74;63.04;100016.28;7737374;32;37134;-80
2023/01/11 04:33:54;;;;;;;7.72;4.22;;;;;;;4.55;63.83;100029.00;7736714;32;39381;-80
2023/01/11 04:38:10;;;;;;;8.75;4.40;;;;;;;4.58;63.19;100012.34;7736932;32;40826;-80
2023/01/11 04:42:26;;;;;;;8.93;4.90;;;;;;;4.61;63.03;100017.31;7736848;32;38482;-80
2023/01/11 04:46:42;;;;;;;9.07;4.65;;;;;;;4.67;63.47;100012.84;7736816;32;36916;-80
2023/01/11 04:50:58;;;;;;;8.15;4.82;;;;;;;4.79;62.62;100038.03;7736781;32;39005;-79
2023/01/11 04:55:15;;;;;;;7.78;5.00;;;;;;;4.64;62.46;100035.75;7736584;32;40941;-81
2023/01/11 04:59:31;;;;;;;8.40;4.50;;;;;;;4.46;63.16;100031.19;7736284;32;38048;-81
2023/01/11 05:03:47;;;;;;;9.50;4.47;;;;;;;4.89;62.06;100053.72;7735961;32;37046;-81
2023/01/11 05:08:03;;;;;;;6.32;4.25;;;;;;;5.03;61.25;100041.66;7736443;32;40004;-79
2023/01/11 05:12:19;;;;;;;6.75;4.68;;;;;;;4.59;62.10;100042.88;7739475;32;39895;-80
2023/01/11 05:16:36;;;;;;;10.27;5.05;;;;;;;4.50;63.11;100048.59;7739715;32;37982;-80
2023/01/11 05:20:52;;;;;;;10.10;5.32;;;;;;;4.35;62.99;100050.84;7739357;32;36836;-80
2023/01/11 05:25:09;;;;;;;8.45;5.10;;;;;;;4.49;62.32;100035.31;7739874;32;40279;-79
2023/01/11 05:29:25;;;;;;;9.25;4.93;;;;;;;4.57;62.17;100028.78;7739760;32;41002;-80
2023/01/11 05:33:42;;;;;;;13.52;5.78;;;;;;;4.41;62.71;100028.31;7739031;32;38745;-79
2023/01/11 05:37:58;;;;;;;12.93;5.40;;;;;;;4.38;62.64;100012.59;7739544;32;38245;-77
2023/01/11 05:42:15;;;;;;;10.43;5.50;;;;;;;4.51;62.26;100044.00;7739270;32;39818;-79
2023/01/11 05:46:33;;;;;;;10.90;4.97;;;;;;;4.34;62.75;100051.88;7739377;32;39920;-81
2023/01/11 05:50:50;;;;;;;11.82;5.05;;;;;;;4.53;62.25;100052.69;7739401;32;38948;-80
2023/01/11 05:55:07;;;;;;;7.53;4.97;;;;;;;4.60;61.96;100047.22;7739452;32;36786;-80
2023/01/11 05:59:25;;;;;;;8.02;4.97;;;;;;;4.65;62.11;100040.09;7738644;32;40110;-81
2023/01/11 06:03:41;;;;;;;11.00;5.30;;;;;;;4.46;62.58;100033.06;7739280;32;40062;-81
2023/01/11 06:07:58;;;;;;;12.45;5.20;;;;;;;4.55;62.36;100034.41;7738828;32;38744;-82
2023/01/11 06:12:14;;;;;;;11.32;6.55;;;;;;;4.65;62.05;100039.28;7739039;32;38330;-81
2023/01/11 06:16:30;;;;;;;13.52;6.35;;;;;;;4.65;62.11;100050.06;7739177;32;39998;-79
2023/01/11 06:20:50;;;;;;;8.82;4.97;;;;;;;4.59;62.16;100042.88;7738642;32;39649;-81
2023/01/11 06:25:07;;;;;;;8.90;5.45;;;;;;;4.66;62.16;100033.66;7724851;32;37951;-82
2023/01/11 06:29:23;;;;;;;12.65;5.93;;;;;;;4.54;62.45;100043.56;7724713;32;37811;-80
2023/01/11 06:33:39;;;;;;;8.30;5.45;;;;;;;4.49;62.68;100040.72;7739010;32;40058;-80
2023/01/11 06:37:56;;;;;;;9.82;6.00;;;;;;;4.59;62.34;100050.97;7737179;32;40834;-80
2023/01/11 06:42:12;;;;;;;11.00;5.95;;;;;;;4.47;62.42;100040.94;7711856;32;38687;-81
2023/01/11 06:46:28;;;;;;;8.85;5.65;;;;;;;4.66;61.63;100044.44;7712150;32;36814;-81
2023/01/11 06:50:52;;;;;;;10.68;6.07;;;;;;;4.57;61.62;100050.37;7712137;32;39353;-79
2023/01/11 06:55:09;;;;;;;8.77;5.82;;;;;;;4.60;61.34;100061.53;7712021;32;39718;-80
2023/01/11 06:59:25;;;;;;;11.05;6.30;;;;;;;4.89;59.93;100062.66;7711782;32;38686;-81
2023/01/11 07:03:42;;;;;;;12.85;6.18;;;;;;;4.70;60.57;100079.94;7711781;32;37201;-81
2023/01/11 07:07:58;;;;;;;11.88;7.00;;;;;;;4.51;61.17;100084.50;7729751;32;39399;-80
2023/01/11 07:12:14;;;;;;;12.18;6.82;;;;;;;4.50;61.19;100086.41;7738417;32;39977;-79
2023/01/11 07:16:31;;;;;;;9.88;5.25;;;;;;;4.59;61.32;100089.62;7732486;32;37967;-81
2023/01/11 07:20:49;;;;;;;11.50;7.05;;;;;;;4.81;67.45;100092.69;7711049;32;37860;-76
2023/01/11 07:25:05;;;;;;;14.02;7.40;;;;;;;5.30;66.15;100094.56;7708499;32;152445;-81
2023/01/11 07:29:21;;;;;;;15.52;7.43;;;;;;;5.06;64.23;100113.38;7711749;32;40024;-77
2023/01/11 07:33:38;;;;;;;14.80;7.72;;;;;;;5.18;68.09;100116.94;7710451;32;37926;-82
2023/01/11 07:37:54;;;;;;;14.05;7.55;;;;;;;5.48;62.72;100107.19;7711741;32;37369;-83
2023/01/11 07:46:46;;;;;;;14.07;7.93;;;;;;;5.38;60.70;100080.69;7711545;32;40190;-82
2023/01/11 07:51:02;;;;;;;16.65;7.82;;;;;;;5.27;60.71;100120.97;7711359;32;37707;-80
2023/01/11 07:55:21;;;;;;;12.60;7.15;;;;;;;5.30;60.86;100119.72;7711448;32;36146;-82
2023/01/11 07:59:37;;;;;;;13.00;7.53;;;;;;;5.48;60.55;100120.72;7717946;32;39308;-83
2023/01/11 08:03:53;;;;;;;13.50;8.23;;;;;;;5.61;60.20;100102.41;7707110;32;40834;-83
2023/01/11 08:08:10;;;;;;;17.08;8.02;;;;;;;5.66;60.44;100104.44;7737403;32;38075;-83
2023/01/11 08:17:01;;;;;;;14.65;8.02;;;;;;;5.94;60.34;100106.47;7737742;32;40220;-84
2023/01/11 08:21:20;;;;;;;17.25;8.68;;;;;;;6.00;61.92;100094.75;7735635;32;40042;-82
2023/01/11 08:25:36;;;;;;;16.77;8.05;;;;;;;6.23;60.24;100103.09;7721319;32;37425;-80
2023/01/11 08:29:52;;;;;;;21.25;8.68;;;;;;;6.41;60.98;100110.28;7720838;32;36798;-83
2023/01/11 08:34:09;;;;;;;13.40;7.90;;;;;;;6.72;61.44;100101.75;7734428;32;39505;-82
2023/01/11 08:38:25;;;;;;;17.42;9.30;;;;;;;6.91;60.24;100107.84;7734980;32;40866;-82
2023/01/11 08:42:41;;;;;;;16.10;8.80;;;;;;;7.13;58.75;100101.78;7736800;32;38020;-84
2023/01/11 08:46:57;;;;;;;18.05;8.50;;;;;;;7.18;57.21;100117.31;7740368;32;37822;-82
2023/01/11 08:51:14;;;;;;;19.60;9.73;;;;;;;7.77;56.57;100127.91;7740288;32;40066;-84
2023/01/11 08:55:30;;;;;;;14.77;8.05;;;;;;;7.97;55.73;100121.97;7740185;32;40644;-83
2023/01/11 08:59:46;;;;;;;15.75;8.70;;;;;;;7.78;55.56;100119.50;7739934;32;38670;-83
2023/01/11 09:04:05;;;;;;;13.23;7.68;;;;;;;7.82;56.52;100142.37;7740024;32;37256;-82
2023/01/11 09:08:38;;;;;;;11.73;6.78;;;;;;;7.80;55.45;100143.69;7728129;32;39378;-83
2023/01/11 09:12:54;;;;;;;15.18;7.72;;;;;;;7.36;55.75;100155.09;7726169;32;39582;-83
2023/01/11 09:17:10;;;;;;;13.25;7.00;;;;;;;7.71;56.46;100151.41;7739883;32;37913;-83
2023/01/11 09:21:27;;;;;;;14.40;6.70;;;;;;;7.98;55.80;100148.06;7739674;32;38017;-81
2023/01/11 09:25:43;;;;;;;13.85;6.82;;;;;;;8.12;55.50;100146.66;7725844;32;39083;-84
2023/01/11 09:30:01;;;;;;;10.25;6.25;;;;;;;8.46;54.71;100141.25;7739025;32;40810;-82
2023/01/11 09:34:19;;;;;;;13.98;6.28;;;;;;;8.51;54.78;100125.03;7738817;32;37812;-82
2023/01/11 09:38:38;;;;;;;16.00;6.93;;;;;;;8.75;54.98;100122.91;7739339;32;36320;-82
2023/01/11 09:42:59;;;;;;;9.93;6.15;;;;;;;9.24;54.07;100113.97;7739613;32;39435;-83
2023/01/11 09:47:35;;;;;;;11.20;6.87;;;;;;;9.52;52.79;100106.66;7723607;32;40015;-83
2023/01/11 09:52:22;;;;;;;13.05;6.78;;;;;;;9.73;52.52;100111.22;7726107;32;38671;-82
2023/01/11 09:56:53;;;;;;;9.23;5.37;;;;;;;9.73;52.89;100108.50;7722038;32;36803;-82
2023/01/11 10:01:16;;;;;;;13.93;6.60;;;;;;;10.00;51.37;100099.44;7725983;32;40103;-82
2023/01/11 10:05:50;;;;;;;11.48;6.80;;;;;;;9.82;50.91;100097.16;7738290;32;40629;-82
2023/01/11 10:10:50;;;;;;;14.13;6.80;;;;;;;9.65;50.24;100106.25;7735665;32;37698;-84
2023/01/11 10:15:42;;;;;;;24.83;6.93;;;;;;;9.86;51.44;100099.06;7734818;32;38426;-88
2023/01/11 10:20:27;;;;;;;14.45;6.30;;;;;;;9.98;50.60;100106.25;7727251;32;40503;-81
2023/01/11 10:24:48;;;;;;;12.65;6.18;;;;;;;9.72;50.89;100109.56;7739302;32;40951;-82
2023/01/11 10:29:52;;;;;;;11.40;5.93;;;;;;;10.04;48.97;100100.59;7738086;32;37924;-79
2023/01/11 10:34:37;;;;;;;9.48;5.65;;;;;;;9.54;49.98;100097.16;7726825;32;37666;-81
2023/01/11 10:39:20;;;;;;;18.02;10.65;;;;;;;9.45;50.62;100103.31;7726959;32;40174;-79
2023/01/11 10:43:40;;;;;;;;;;;;;;;9.47;52.11;100095.72;7728512;32;40547;-82
2023/01/11 10:48:32;;;;;;;10.25;5.60;;;;;;;10.02;49.55;100086.41;7739268;32;36495;-82
2023/01/11 10:53:18;;;;;;;13.40;7.20;;;;;;;10.02;49.42;100085.56;7713663;32;37037;-82
2023/01/11 10:57:59;;;;;;;9.93;5.12;;;;;;;11.00;48.28;100067.87;7722968;32;39342;-83
2023/01/11 11:02:36;;;;;;;9.93;5.60;;;;;;;10.71;46.54;100069.16;7735096;32;39719;-81
2023/01/11 11:07:15;;;;;;;13.15;6.18;;;;;;;10.19;49.09;100080.78;7737082;32;38180;-82
2023/01/11 11:11:51;;;;;;;11.43;6.10;;;;;;;9.86;50.88;100071.84;7738019;32;37293;-84
2023/01/11 11:16:26;;;;;;;11.70;5.93;;;;;;;10.28;49.59;100076.50;7711896;32;40156;-82
2023/01/11 11:20:45;;;;;;;10.43;5.22;;;;;;;11.27;49.69;100063.03;7709125;32;40058;-84
2023/01/11 11:25:17;;;;;;;9.80;5.60;;;;;;;11.04;47.02;100052.62;7710299;32;37112;-83
2023/01/11 11:29:40;;;;;;;9.63;5.97;;;;;;;10.75;47.69;100044.06;7710378;32;37145;-81
2023/01/11 11:34:07;;;;;;;12.35;6.22;;;;;;;10.20;47.98;100041.56;7710092;32;39527;-82
2023/01/11 11:38:27;;;;;;;18.02;6.55;;;;;;;10.19;49.66;100028.22;7711006;32;39807;-82
2023/01/11 11:42:43;;;;;;;12.70;6.80;;;;;;;10.28;49.17;100023.94;7710641;32;38067;-81
2023/01/11 11:47:02;;;;;;;14.45;7.25;;;;;;;10.03;49.63;100030.03;7710175;32;37046;-81
2023/01/11 11:51:22;;;;;;;12.82;6.43;;;;;;;9.85;49.39;100014.91;7711230;32;40155;-81
2023/01/11 11:55:38;;;;;;;13.05;6.32;;;;;;;9.87;49.70;100012.78;7704352;32;39367;-80
2023/01/11 12:00:04;;;;;;;10.90;6.20;;;;;;;9.26;51.59;100008.47;7710654;32;38845;-79
2023/01/11 12:04:35;;;;;;;10.70;6.60;;;;;;;9.88;50.89;100004.34;7696874;32;36880;-82
2023/01/11 12:08:51;;;;;;;10.15;5.95;;;;;;;10.44;50.32;100006.59;7703980;32;40029;-82
2023/01/11 12:13:24;;;;;;;14.65;6.57;;;;;;;10.57;50.41;100007.19;7720481;32;40831;-81
2023/01/11 12:17:41;;;;;;;9.98;6.07;;;;;;;9.95;52.01;100009.53;7715953;32;37582;-83
2023/01/11 12:22:26;;;;;;;10.77;6.18;;;;;;;9.99;51.29;100021.56;7716372;32;36864;-82
2023/01/11 12:27:05;;;;;;;11.77;5.95;;;;;;;10.22;50.87;100008.62;7717134;32;39073;-82
2023/01/11 12:31:29;;;;;;;9.88;5.93;;;;;;;10.79;50.08;100009.72;7721007;32;39551;-82
2023/01/11 12:36:12;;;;;;;9.85;5.32;;;;;;;10.34;49.60;100011.97;7710110;32;38786;-82
2023/01/11 12:40:51;;;;;;;12.07;5.43;;;;;;;10.60;49.09;100012.91;7710373;32;37128;-81
2023/01/11 12:45:17;;;;;;;8.73;4.93;;;;;;;10.92;49.24;100011.94;7710229;32;40166;-83
2023/01/11 12:49:55;;;;;;;8.75;5.03;;;;;;;10.98;47.79;100007.31;7710276;32;40796;-83
2023/01/11 12:54:50;;;;;;;9.52;5.53;;;;;;;11.71;46.57;99989.91;7710241;32;38146;-81
2023/01/11 12:59:22;;;;;;;11.00;5.07;;;;;;;11.67;46.03;99988.81;7710552;32;36868;-83
2023/01/11 13:03:38;;;;;;;10.63;4.93;;;;;;;12.24;44.70;99998.59;7721958;32;38982;-79
2023/01/11 13:08:35;;;;;;;9.32;4.85;;;;;;;12.68;43.84;100003.34;7725541;32;38969;-80
2023/01/11 13:13:06;;;;;;;8.70;4.37;;;;;;;12.50;43.62;100001.22;7734071;32;37818;-82
2023/01/11 13:17:38;;;;;;;10.07;5.28;;;;;;;13.50;41.80;99997.41;7735331;32;37787;-82
2023/01/11 13:21:55;;;;;;;8.05;4.50;;;;;;;13.20;41.68;100003.06;7735403;32;38989;-80
2023/01/11 13:26:22;;;;;;;7.85;4.70;;;;;;;13.57;40.71;99996.25;7736263;32;39977;-81
2023/01/11 13:30:39;;;;;;;10.18;4.72;;;;;;;13.85;40.48;100005.59;7736736;32;38147;-81
2023/01/11 13:35:12;;;;;;;7.93;4.22;;;;;;;14.20;39.22;100012.63;7738484;32;38040;-82
2023/01/11 13:39:39;;;;;;;8.88;4.75;;;;;;;14.19;39.40;100013.72;7739677;32;40238;-82
2023/01/11 13:44:14;;;;;;;8.55;4.30;;;;;;;14.84;37.59;100005.03;7739501;32;39763;-82
2023/01/11 13:48:40;;;;;;;8.82;4.10;;;;;;;15.68;36.12;100017.25;7738376;32;38771;-82
2023/01/11 13:53:27;;;;;;;8.10;4.28;;;;;;;17.03;33.39;100013.63;7738376;32;37095;-82
2023/01/11 13:57:54;;;;;;;9.35;3.78;;;;;;;18.40;29.28;99999.44;7739460;32;39446;-82
2023/01/11 14:02:34;;;;;;;6.82;3.37;;;;;;;20.33;26.10;99987.22;7739349;32;39686;-82
2023/01/11 14:07:30;;;;;;;7.50;3.83;;;;;;;21.46;24.69;99994.03;7738007;32;38658;-83
2023/01/11 14:11:49;;;;;;;6.55;3.35;;;;;;;21.41;24.99;100004.50;7739250;32;37222;-82
2023/01/11 14:16:21;;;;;;;8.20;4.22;;;;;;;21.98;23.94;99997.44;7739150;32;40171;-82
2023/01/11 14:21:01;;;;;;;9.90;4.93;;;;;;;21.73;24.18;99994.59;7737982;32;39967;-82
2023/01/11 14:25:56;;;;;;;10.95;5.53;;;;;;;22.40;23.39;99995.31;7738913;32;38884;-82
2023/01/11 14:30:45;;;;;;;9.40;5.30;;;;;;;23.33;22.17;99979.91;7738933;32;37614;-82
2023/01/11 14:35:22;;;;;;;9.82;5.07;;;;;;;23.70;21.65;99990.88;7738999;32;39309;-83
2023/01/11 14:39:56;;;;;;;9.40;5.10;;;;;;;22.44;22.84;99976.81;7738536;32;39655;-82
2023/01/11 14:44:25;;;;;;;10.15;5.43;;;;;;;20.81;25.67;99985.22;7738874;32;38773;-82
2023/01/11 14:48:56;;;;;;;9.45;4.78;;;;;;;19.00;27.96;99995.25;7737694;32;37927;-83
2023/01/11 14:53:17;;;;;;;;;;;;;;;17.38;31.19;100013.91;7739209;32;39549;-82
2023/01/11 14:58:01;;;;;;;13.62;6.03;;;;;;;16.80;31.85;100010.78;7738898;32;41950;-82
2023/01/11 15:02:27;;;;;;;13.30;7.62;;;;;;;16.14;33.67;100015.66;7738418;32;38762;-82
2023/01/11 15:06:54;;;;;;;19.67;10.80;;;;;;;15.00;36.42;100022.12;7738501;32;37005;-82
2023/01/11 15:11:30;;;;;;;19.35;9.82;;;;;;;13.81;38.87;100013.56;7738502;32;39797;-81
2023/01/11 15:20:23;;;;;;;20.27;9.98;;;;;;;12.47;42.21;100021.75;7738355;32;38886;-81
2023/01/11 15:24:42;;;;;;;18.98;10.85;;;;;;;11.99;43.48;100018.59;7736927;32;37940;-82
2023/01/11 15:29:01;;;;;;;20.02;10.02;;;;;;;11.59;44.62;100012.88;7737284;32;39029;-81
2023/01/11 15:33:17;;;;;;;17.85;8.55;;;;;;;11.26;45.53;100017.75;7738078;32;40839;-81
2023/01/11 15:37:49;;;;;;;16.12;7.57;;;;;;;10.58;47.35;100027.91;7738256;32;38260;-81
2023/01/11 15:42:32;;;;;;;14.73;7.70;;;;;;;10.46;47.40;100020.75;7738176;32;37124;-82
2023/01/11 15:46:53;;;;;;;15.50;8.48;;;;;;;10.28;47.85;100013.84;7738229;32;39428;-80
2023/01/11 15:51:25;;;;;;;15.30;8.35;;;;;;;9.86;48.80;100022.81;7736683;32;39949;-80
2023/01/11 15:55:57;;;;;;;18.15;8.60;;;;;;;9.61;49.46;100025.34;7738052;32;38667;-80
2023/01/11 16:00:47;;;;;;;18.23;8.95;;;;;;;9.50;49.98;100021.72;7738011;32;37044;-81
2023/01/11 16:05:24;;;;;;;15.65;8.75;;;;;;;9.60;49.52;100016.37;7738070;32;40089;-80
2023/01/11 16:09:45;;;;;;;15.60;8.38;;;;;;;9.03;51.48;100029.44;7736740;32;40053;-80
2023/01/11 16:14:29;;;;;;;15.63;8.80;;;;;;;9.07;51.45;100009.87;7737815;32;38409;-81
2023/01/11 16:18:59;;;;;;;19.37;9.98;;;;;;;9.08;51.44;100006.09;7737838;32;37240;-81
2023/01/11 16:23:19;;;;;;;21.95;11.50;;;;;;;8.79;52.13;100009.06;7737607;32;39478;-80
2023/01/11 16:27:36;;;;;;;22.15;12.25;;;;;;;8.72;52.54;100013.87;7736336;32;40158;-80
2023/01/11 16:31:53;;;;;;;22.48;12.95;;;;;;;8.70;52.72;100026.91;7736214;32;39198;-80
2023/01/11 16:36:19;;;;;;;21.30;12.48;;;;;;;8.69;52.83;100027.97;7737260;32;37289;-80
2023/01/11 16:40:39;;;;;;;22.40;13.60;;;;;;;8.32;53.87;100025.84;7737270;32;39512;-80
2023/01/11 16:44:59;;;;;;;22.60;12.52;;;;;;;8.10;54.48;100021.19;7735817;32;40463;-80
2023/01/11 16:49:17;;;;;;;22.55;12.02;;;;;;;7.97;55.07;100019.66;7736857;32;38264;-80
2023/01/11 16:53:44;;;;;;;20.75;11.77;;;;;;;7.74;55.42;100028.78;7736762;32;37205;-80
2023/01/11 16:58:05;;;;;;;23.73;11.68;;;;;;;7.50;56.28;100023.53;7736760;32;39086;-80
2023/01/11 17:02:37;;;;;;;21.52;10.85;;;;;;;7.67;55.49;100015.38;7735338;32;40066;-80
2023/01/11 17:06:54;;;;;;;20.25;10.10;;;;;;;7.49;56.37;100013.75;7739777;32;38025;-80
2023/01/11 17:11:24;;;;;;;17.58;9.73;;;;;;;7.55;56.21;100009.22;7739930;32;37901;-80
2023/01/11 17:15:54;;;;;;;17.62;9.57;;;;;;;7.13;57.53;100018.53;7740053;32;39354;-80
2023/01/11 17:20:25;;;;;;;16.12;8.65;;;;;;;6.98;57.90;100031.00;7738799;32;39638;-80
2023/01/11 17:24:52;;;;;;;16.45;8.43;;;;;;;7.07;57.35;100026.81;7739748;32;38887;-80
2023/01/11 17:29:15;;;;;;;14.48;8.32;;;;;;;7.24;56.95;100024.97;7739921;32;36840;-80
2023/01/11 17:33:32;;;;;;;12.45;7.30;;;;;;;7.01;57.61;100030.50;7738868;32;40132;-80
2023/01/11 17:37:50;;;;;;;17.80;8.77;;;;;;;7.38;56.22;100033.63;7739588;32;40656;-80
2023/01/11 17:46:46;;;;;;;19.23;9.52;;;;;;;6.61;58.14;100050.31;7738649;32;37871;-81
2023/01/11 17:51:04;;;;;;;21.98;12.05;;;;;;;6.61;57.80;100045.72;7738339;32;40197;-81
2023/01/11 17:55:25;;;;;;;22.20;10.93;;;;;;;6.49;58.20;100051.16;7739536;32;40103;-80
2023/01/11 17:59:42;;;;;;;18.08;10.52;;;;;;;6.64;57.44;100057.94;7738309;32;38738;-81
2023/01/11 18:03:58;;;;;;;16.70;9.90;;;;;;;6.86;56.40;100058.13;7739437;32;37753;-80
2023/01/11 18:08:19;;;;;;;16.40;9.25;;;;;;;6.56;57.40;100051.84;7739250;32;40131;-81
2023/01/11 18:12:36;;;;;;;14.43;8.73;;;;;;;6.51;57.44;100056.34;7738139;32;40966;-80
2023/01/11 18:17:01;;;;;;;20.90;10.27;;;;;;;6.64;56.67;100058.81;7737537;32;37675;-79
2023/01/11 18:21:35;;;;;;;18.15;9.90;;;;;;;6.18;58.17;100057.78;7739188;32;37856;-80
2023/01/11 18:26:11;;;;;;;;;;;;;;;5.87;59.42;100067.06;7739423;32;39312;-80
2023/01/11 18:30:30;;;;;;;16.45;8.50;;;;;;;6.00;59.69;100062.28;7739220;32;40129;-81
2023/01/11 18:34:50;;;;;;;14.65;8.77;;;;;;;6.26;57.79;100067.44;7738932;32;38536;-80
2023/01/11 18:39:11;;;;;;;14.50;8.55;;;;;;;5.84;59.00;100081.88;7739033;32;36874;-80
2023/01/11 18:43:29;;;;;;;14.38;8.13;;;;;;;5.99;58.92;100074.16;7739034;32;39374;-81
2023/01/11 18:47:46;;;;;;;15.57;8.38;;;;;;;5.72;58.95;100081.03;7737682;32;40036;-80
2023/01/11 18:52:02;;;;;;;17.23;9.13;;;;;;;5.58;58.99;100081.22;7738828;32;38474;-80
2023/01/11 18:56:18;;;;;;;16.17;9.27;;;;;;;5.91;57.75;100090.69;7738936;32;36819;-80
2023/01/11 19:00:35;;;;;;;18.52;9.48;;;;;;;5.95;57.71;100088.34;7738789;32;39220;-80
2023/01/11 19:04:53;;;;;;;15.93;9.07;;;;;;;5.93;57.73;100077.78;7738447;32;40052;-80
2023/01/11 19:09:09;;;;;;;18.90;10.15;;;;;;;5.70;58.35;100085.84;7736870;32;38721;-80
2023/01/11 19:13:26;;;;;;;19.15;9.70;;;;;;;5.44;60.12;100094.13;7738039;32;37991;-80
2023/01/11 19:17:42;;;;;;;15.20;9.80;;;;;;;5.49;60.13;100092.63;7738481;32;40108;-78
2023/01/11 19:21:58;;;;;;;15.35;8.85;;;;;;;5.47;60.18;100090.16;7738304;32;40637;-79
2023/01/11 19:26:14;;;;;;;16.50;9.20;;;;;;;5.45;59.44;100103.09;7738832;32;37943;-80
2023/01/11 19:30:31;;;;;;;15.27;8.32;;;;;;;5.69;58.35;100086.88;7724592;32;37170;-80
2023/01/11 19:34:47;;;;;;;16.70;9.07;;;;;;;5.24;59.58;100099.84;7738167;32;39372;-79
2023/01/11 19:39:04;;;;;;;15.15;8.38;;;;;;;5.48;59.42;100097.19;7737430;32;40093;-80
2023/01/11 19:43:21;;;;;;;19.55;9.65;;;;;;;5.27;59.45;100098.53;7720810;32;37939;-80
2023/01/11 19:47:38;;;;;;;20.83;9.25;;;;;;;5.13;59.78;100100.59;7734772;32;37637;-79
2023/01/11 19:51:54;;;;;;;20.02;9.30;;;;;;;5.36;60.03;100093.63;7734562;32;39080;-79
2023/01/11 19:56:10;;;;;;;19.05;9.73;;;;;;;5.33;59.96;100088.66;7736417;32;39728;-80
2023/01/11 20:00:27;;;;;;;16.73;8.10;;;;;;;5.32;60.24;100112.19;7737559;32;38823;-79
2023/01/11 20:04:43;;;;;;;19.60;8.55;;;;;;;5.45;60.05;100113.91;7737950;32;37100;-81
2023/01/11 20:09:00;;;;;;;15.50;8.10;;;;;;;5.66;58.81;100099.03;7724895;32;39550;-80
2023/01/11 20:13:16;;;;;;;13.10;7.43;;;;;;;5.66;58.09;100085.50;7710898;32;39919;-80
2023/01/11 20:17:34;;;;;;;17.30;8.40;;;;;;;5.39;59.03;100095.88;7720729;32;38571;-81
2023/01/11 20:21:50;;;;;;;13.80;7.60;;;;;;;5.26;60.02;100110.41;7731959;32;36411;-80
2023/01/11 20:26:13;;;;;;;11.73;7.43;;;;;;;5.32;59.17;100104.06;7710699;32;39210;-82
2023/01/11 20:30:29;;;;;;;14.25;8.32;;;;;;;5.25;58.96;100098.75;7710538;32;40100;-82
2023/01/11 20:34:46;;;;;;;13.55;7.30;;;;;;;5.18;59.29;100108.03;7733796;32;37942;-81
2023/01/11 20:39:03;;;;;;;14.95;6.85;;;;;;;5.04;59.63;100119.00;7736584;32;37205;-83
2023/01/11 20:43:19;;;;;;;14.57;7.25;;;;;;;5.05;58.84;100111.72;7718926;32;39277;-81
2023/01/11 20:47:36;;;;;;;14.15;8.00;;;;;;;5.26;58.04;100122.03;7720907;32;40789;-84
2023/01/11 20:51:52;;;;;;;12.80;7.75;;;;;;;5.10;58.20;100122.66;7729590;32;37546;-79
2023/01/11 20:56:08;;;;;;;16.35;7.47;;;;;;;4.96;58.60;100132.81;7696052;32;37713;-81
2023/01/11 21:00:25;;;;;;;15.98;8.50;;;;;;;4.78;59.77;100130.12;7709563;32;39343;-82